| time (UTC) | temp F | wind direction | speed MPH | gust MPH | rain 1hr in | rain 24hr in | rain mn in | humidity % | barometer mb |
| 20260906234658 | 54 | 127 | 9.0 | 18.0 | 0.00 | 0.00 | 0.00 | 69 | 1025.8 |
| 20260906234152 | 54 | 121 | 14.0 | 18.0 | 0.00 | 0.00 | 0.00 | 67 | 1026.1 |
| 20260906233651 | 54 | 120 | 11.0 | 15.0 | 0.00 | 0.00 | 0.00 | 66 | 1026.3 |
| 20260906233150 | 54 | 125 | 8.0 | 15.0 | 0.00 | 0.00 | 0.00 | 67 | 1026.3 |
| 20260906232646 | 54 | 96 | 8.0 | 16.0 | 0.00 | 0.00 | 0.00 | 67 | 1026.3 |
| 20260906232141 | 55 | 132 | 9.0 | 13.0 | 0.00 | 0.00 | 0.00 | 66 | 1026.6 |
| 20260906231635 | 55 | 142 | 9.0 | 14.0 | 0.00 | 0.00 | 0.00 | 65 | 1026.9 |
| 20260906231131 | 55 | 125 | 10.0 | 15.0 | 0.00 | 0.00 | 0.00 | 63 | 1026.6 |
| 20260906230630 | 56 | 149 | 10.0 | 18.0 | 0.00 | 0.00 | 0.00 | 62 | 1026.7 |
| 20260906230125 | 57 | 2 | 5.0 | 14.0 | 0.00 | 0.00 | 0.00 | 60 | 1026.7 |
| 20260906225624 | 58 | 98 | 9.0 | 14.0 | 0.00 | 0.00 | 0.00 | 57 | 1026.6 |
| 20260906225121 | 60 | 138 | 5.0 | 10.0 | 0.00 | 0.00 | 0.00 | 52 | 1026.5 |
| 20260906224620 | 60 | 82 | 8.0 | 14.0 | 0.00 | 0.00 | 0.00 | 48 | 1026.2 |
| 20260906224117 | 61 | 185 | 4.0 | 13.0 | 0.00 | 0.00 | 0.00 | 46 | 1026.5 |
| 20260906223613 | 61 | 167 | 6.0 | 10.0 | 0.00 | 0.00 | 0.00 | 45 | 1027.0 |
| 20260906223112 | 61 | 122 | 7.0 | 14.0 | 0.00 | 0.00 | 0.00 | 44 | 1026.9 |
| 20260906222612 | 61 | 152 | 6.0 | 10.0 | 0.00 | 0.00 | 0.00 | 44 | 1027.2 |
| 20260906222109 | 61 | 133 | 4.0 | 14.0 | 0.00 | 0.00 | 0.00 | 44 | 1027.0 |
| 20260906221608 | 61 | 142 | 6.0 | 10.0 | 0.00 | 0.00 | 0.00 | 42 | 1026.9 |
| 20260906221103 | 61 | 120 | 3.0 | 10.0 | 0.00 | 0.00 | 0.00 | 40 | 1026.7 |
| 20260906220558 | 61 | 135 | 6.0 | 9.0 | 0.00 | 0.00 | 0.00 | 39 | 1026.7 |
| 20260906220054 | 62 | 138 | 9.0 | 13.0 | 0.00 | 0.00 | 0.00 | 38 | 1026.3 |
| 20260906215552 | 62 | 105 | 8.0 | 13.0 | 0.00 | 0.00 | 0.00 | 38 | 1026.7 |
| 20260906215051 | 62 | 145 | 8.0 | 11.0 | 0.00 | 0.00 | 0.00 | 38 | 1026.5 |
| 20260906214550 | 62 | 120 | 5.0 | 13.0 | 0.00 | 0.00 | 0.00 | 38 | 1026.9 |
| 20260906214045 | 62 | 114 | 5.0 | 13.0 | 0.00 | 0.00 | 0.00 | 38 | 1026.2 |
| 20260906213544 | 62 | 107 | 12.0 | 17.0 | 0.00 | 0.00 | 0.00 | 37 | 1026.5 |
| 20260906213039 | 63 | 137 | 12.0 | 17.0 | 0.00 | 0.00 | 0.00 | 37 | 1026.9 |
| 20260906212532 | 62 | 156 | 7.0 | 14.0 | 0.00 | 0.00 | 0.00 | 37 | 1026.5 |
| 20260906212028 | 62 | 127 | 9.0 | 14.0 | 0.00 | 0.00 | 0.00 | 36 | 1026.7 |
| 20260906211527 | 63 | 146 | 9.0 | 15.0 | 0.00 | 0.00 | 0.00 | 36 | 1027.0 |
| 20260906211022 | 63 | 121 | 8.0 | 15.0 | 0.00 | 0.00 | 0.00 | 34 | 1027.0 |
| 20260906210518 | 64 | 193 | 9.0 | 16.0 | 0.00 | 0.00 | 0.00 | 33 | 1027.1 |
| 20260906210017 | 65 | 113 | 9.0 | 13.0 | 0.00 | 0.00 | 0.00 | 33 | 1026.9 |
| 20260906205513 | 66 | 54 | 6.0 | 16.0 | 0.00 | 0.00 | 0.00 | 32 | 1027.0 |
| 20260906205009 | 65 | 104 | 4.0 | 9.0 | 0.00 | 0.00 | 0.00 | 33 | 1027.0 |
| 20260906204509 | 65 | 193 | 9.0 | 13.0 | 0.00 | 0.00 | 0.00 | 32 | 1027.0 |
| 20260906204008 | 66 | 223 | 9.0 | 16.0 | 0.00 | 0.00 | 0.00 | 33 | 1026.9 |
| 20260906203503 | 66 | 213 | 2.0 | 10.0 | 0.00 | 0.00 | 0.00 | 34 | 1026.9 |
| 20260906203002 | 65 | 264 | 2.0 | 7.0 | 0.00 | 0.00 | 0.00 | 36 | 1027.0 |
| 20260906202500 | 65 | 235 | 8.0 | 11.0 | 0.00 | 0.00 | 0.00 | 36 | 1027.1 |
| 20260906201955 | 65 | 235 | 7.0 | 10.0 | 0.00 | 0.00 | 0.00 | 35 | 1027.1 |
| 20260906201450 | 65 | 211 | 3.0 | 7.0 | 0.00 | 0.00 | 0.00 | 36 | 1027.2 |
| 20260906200950 | 66 | 216 | 10.0 | 14.0 | 0.00 | 0.00 | 0.00 | 35 | 1027.2 |
| 20260906200446 | 66 | 276 | 6.0 | 17.0 | 0.00 | 0.00 | 0.00 | 34 | 1027.4 |
| 20260906195946 | 66 | 194 | 4.0 | 11.0 | 0.00 | 0.00 | 0.00 | 35 | 1027.4 |
| 20260906195442 | 67 | 188 | 11.0 | 17.0 | 0.00 | 0.00 | 0.00 | 34 | 1027.5 |
| 20260906194938 | 66 | 203 | 6.0 | 9.0 | 0.00 | 0.00 | 0.00 | 34 | 1027.1 |
| 20260906194434 | 67 | 226 | 9.0 | 14.0 | 0.00 | 0.00 | 0.00 | 33 | 1027.4 |
| 20260906193929 | 68 | 253 | 6.0 | 10.0 | 0.00 | 0.00 | 0.00 | 32 | 1027.2 |
| 20260906193424 | 67 | 176 | 5.0 | 10.0 | 0.00 | 0.00 | 0.00 | 34 | 1027.6 |
| 20260906192920 | 65 | 138 | 5.0 | 9.0 | 0.00 | 0.00 | 0.00 | 34 | 1027.4 |
| 20260906192420 | 67 | 195 | 7.0 | 14.0 | 0.00 | 0.00 | 0.00 | 33 | 1027.6 |
| 20260906191919 | 66 | 235 | 4.0 | 7.0 | 0.00 | 0.00 | 0.00 | 34 | 1027.5 |
| 20260906191414 | 67 | 210 | 5.0 | 15.0 | 0.00 | 0.00 | 0.00 | 32 | 1027.5 |
| 20260906190913 | 66 | 252 | 9.0 | 14.0 | 0.00 | 0.00 | 0.00 | 32 | 1027.8 |
| 20260906190413 | 67 | 248 | 7.0 | 9.0 | 0.00 | 0.00 | 0.00 | 30 | 1027.8 |
| 20260906185908 | 67 | 253 | 4.0 | 10.0 | 0.00 | 0.00 | 0.00 | 31 | 1027.8 |
| 20260906185407 | 68 | 212 | 9.0 | 17.0 | 0.00 | 0.00 | 0.00 | 30 | 1028.2 |
| 20260906184906 | 67 | 225 | 7.0 | 10.0 | 0.00 | 0.00 | 0.00 | 32 | 1028.0 |
| 20260906184407 | 66 | 193 | 7.0 | 10.0 | 0.00 | 0.00 | 0.00 | 31 | 1028.0 |
| 20260906183902 | 66 | 184 | 4.0 | 10.0 | 0.00 | 0.00 | 0.00 | 33 | 1028.4 |
| 20260906183358 | 66 | 224 | 6.0 | 9.0 | 0.00 | 0.00 | 0.00 | 32 | 1027.9 |
| 20260906182859 | 66 | 251 | 6.0 | 9.0 | 0.00 | 0.00 | 0.00 | 32 | 1028.0 |
| 20260906182354 | 66 | 238 | 6.0 | 10.0 | 0.00 | 0.00 | 0.00 | 31 | 1028.0 |
| 20260906181849 | 66 | 245 | 5.0 | 10.0 | 0.00 | 0.00 | 0.00 | 31 | 1028.0 |
| 20260906181345 | 67 | 233 | 6.0 | 13.0 | 0.00 | 0.00 | 0.00 | 29 | 1028.4 |
| 20260906180841 | 65 | 212 | 11.0 | 14.0 | 0.00 | 0.00 | 0.00 | 29 | 1028.4 |
| 20260906180335 | 66 | 212 | 7.0 | 14.0 | 0.00 | 0.00 | 0.00 | 29 | 1028.4 |
| 20260906175833 | 66 | 177 | 4.0 | 6.0 | 0.00 | 0.00 | 0.00 | 31 | 1028.4 |
| 20260906175328 | 65 | 283 | 6.0 | 11.0 | 0.00 | 0.00 | 0.00 | 29 | 1028.5 |
| 20260906174828 | 66 | 231 | 7.0 | 13.0 | 0.00 | 0.00 | 0.00 | 29 | 1028.7 |
| 20260906174327 | 66 | 293 | 8.0 | 10.0 | 0.00 | 0.00 | 0.00 | 29 | 1028.7 |
| 20260906173822 | 65 | 145 | 3.0 | 10.0 | 0.00 | 0.00 | 0.00 | 31 | 1028.4 |
| 20260906173318 | 65 | 225 | 6.0 | 9.0 | 0.00 | 0.00 | 0.00 | 30 | 1028.5 |
| 20260906172816 | 64 | 196 | 7.0 | 10.0 | 0.00 | 0.00 | 0.00 | 32 | 1028.7 |
| 20260906172313 | 65 | 224 | 4.0 | 9.0 | 0.00 | 0.00 | 0.00 | 32 | 1028.4 |
| 20260906171813 | 64 | 180 | 3.0 | 8.0 | 0.00 | 0.00 | 0.00 | 35 | 1028.5 |
| 20260906171308 | 63 | 194 | 6.0 | 10.0 | 0.00 | 0.00 | 0.00 | 34 | 1028.7 |
| 20260906170804 | 63 | 262 | 4.0 | 13.0 | 0.00 | 0.00 | 0.00 | 33 | 1028.9 |
| 20260906170300 | 63 | 211 | 5.0 | 11.0 | 0.00 | 0.00 | 0.00 | 35 | 1028.8 |
| 20260906165756 | 63 | 195 | 7.0 | 11.0 | 0.00 | 0.00 | 0.00 | 34 | 1028.9 |
| 20260906165256 | 63 | 229 | 4.0 | 8.0 | 0.00 | 0.00 | 0.00 | 35 | 1028.7 |
| 20260906164755 | 63 | 164 | 4.0 | 9.0 | 0.00 | 0.00 | 0.00 | 35 | 1028.9 |
| 20260906164249 | 62 | 238 | 7.0 | 9.0 | 0.00 | 0.00 | 0.00 | 37 | 1028.8 |
| 20260906163746 | 62 | 165 | 1.0 | 3.0 | 0.00 | 0.00 | 0.00 | 40 | 1028.4 |
| 20260906163242 | 62 | 119 | 6.0 | 7.0 | 0.00 | 0.00 | 0.00 | 40 | 1029.1 |
| 20260906162739 | 62 | 123 | 4.0 | 7.0 | 0.00 | 0.00 | 0.00 | 41 | 1028.7 |
| 20260906162233 | 61 | 156 | 2.0 | 7.0 | 0.00 | 0.00 | 0.00 | 41 | 1028.9 |
| 20260906161733 | 61 | 128 | 4.0 | 6.0 | 0.00 | 0.00 | 0.00 | 43 | 1028.7 |
| 20260906161232 | 62 | 210 | 5.0 | 7.0 | 0.00 | 0.00 | 0.00 | 41 | 1028.9 |
| 20260906160732 | 62 | 147 | 7.0 | 8.0 | 0.00 | 0.00 | 0.00 | 42 | 1029.2 |
| 20260906160231 | 62 | 175 | 2.0 | 6.0 | 0.00 | 0.00 | 0.00 | 44 | 1028.8 |
| 20260906155728 | 62 | 210 | 4.0 | 7.0 | 0.00 | 0.00 | 0.00 | 43 | 1029.1 |
| 20260906155224 | 61 | 159 | 4.0 | 7.0 | 0.00 | 0.00 | 0.00 | 43 | 1029.1 |
| 20260906154719 | 60 | 197 | 3.0 | 6.0 | 0.00 | 0.00 | 0.00 | 45 | 1028.7 |
| 20260906154215 | 60 | 154 | 5.0 | 8.0 | 0.00 | 0.00 | 0.00 | 44 | 1029.1 |
| 20260906153712 | 60 | 139 | 2.0 | 6.0 | 0.00 | 0.00 | 0.00 | 44 | 1029.2 |
| 20260906153208 | 60 | 177 | 4.0 | 8.0 | 0.00 | 0.00 | 0.00 | 43 | 1028.9 |
| 20260906152702 | 60 | 157 | 4.0 | 6.0 | 0.00 | 0.00 | 0.00 | 43 | 1029.1 |
| 20260906152156 | 59 | 213 | 3.0 | 7.0 | 0.00 | 0.00 | 0.00 | 45 | 1029.1 |
| 20260906151651 | 59 | 182 | 4.0 | 7.0 | 0.00 | 0.00 | 0.00 | 44 | 1028.9 |
| 20260906151147 | 59 | 218 | 6.0 | 8.0 | 0.00 | 0.00 | 0.00 | 43 | 1029.1 |
| 20260906150642 | 58 | 240 | 4.0 | 6.0 | 0.00 | 0.00 | 0.00 | 45 | 1028.9 |
| 20260906150137 | 58 | 169 | 5.0 | 7.0 | 0.00 | 0.00 | 0.00 | 45 | 1029.1 |
| 20260906145636 | 59 | 156 | 4.0 | 7.0 | 0.00 | 0.00 | 0.00 | 44 | 1028.9 |
| 20260906145131 | 58 | 156 | 2.0 | 7.0 | 0.00 | 0.00 | 0.00 | 46 | 1028.8 |
| 20260906144625 | 58 | 143 | 4.0 | 6.0 | 0.00 | 0.00 | 0.00 | 45 | 1028.8 |
| 20260906144121 | 58 | 148 | 4.0 | 6.0 | 0.00 | 0.00 | 0.00 | 45 | 1028.8 |
| 20260906143620 | 58 | 108 | 1.0 | 6.0 | 0.00 | 0.00 | 0.00 | 45 | 1028.9 |
| 20260906143117 | 58 | 210 | 2.0 | 4.0 | 0.00 | 0.00 | 0.00 | 45 | 1028.9 |
| 20260906142616 | 58 | 127 | 2.0 | 4.0 | 0.00 | 0.00 | 0.00 | 45 | 1028.7 |
| 20260906142112 | 57 | 232 | 2.0 | 4.0 | 0.00 | 0.00 | 0.00 | 46 | 1028.8 |
| 20260906141610 | 57 | 158 | 3.0 | 4.0 | 0.00 | 0.00 | 0.00 | 46 | 1028.7 |
| 20260906141106 | 57 | 184 | 3.0 | 6.0 | 0.00 | 0.00 | 0.00 | 46 | 1028.7 |
| 20260906140605 | 57 | 145 | 3.0 | 4.0 | 0.00 | 0.00 | 0.00 | 46 | 1028.8 |
| 20260906140100 | 56 | 177 | 2.0 | 3.0 | 0.00 | 0.00 | 0.00 | 46 | 1028.7 |
| 20260906135557 | 56 | 184 | 3.0 | 4.0 | 0.00 | 0.00 | 0.00 | 46 | 1028.7 |
| 20260906135053 | 56 | 180 | 3.0 | 3.0 | 0.00 | 0.00 | 0.00 | 47 | 1028.8 |
| 20260906134548 | 56 | 167 | 2.0 | 2.0 | 0.00 | 0.00 | 0.00 | 46 | 1028.7 |
| 20260906134043 | 55 | 157 | 2.0 | 3.0 | 0.00 | 0.00 | 0.00 | 47 | 1028.3 |
| 20260906133539 | 55 | 179 | 2.0 | 2.0 | 0.00 | 0.00 | 0.00 | 47 | 1028.2 |
| 20260906133034 | 55 | 138 | 2.0 | 2.0 | 0.00 | 0.00 | 0.00 | 47 | 1028.3 |
| 20260906132529 | 54 | 180 | 4.0 | 4.0 | 0.00 | 0.00 | 0.00 | 46 | 1028.2 |
| 20260906132025 | 54 | 158 | 1.0 | 2.0 | 0.00 | 0.00 | 0.00 | 47 | 1028.2 |
| 20260906131520 | 53 | 148 | 1.0 | 2.0 | 0.00 | 0.00 | 0.00 | 47 | 1028.3 |
| 20260906131016 | 52 | 171 | 2.0 | 2.0 | 0.00 | 0.00 | 0.00 | 48 | 1028.2 |
| 20260906130515 | 52 | 165 | 2.0 | 2.0 | 0.00 | 0.00 | 0.00 | 49 | 1028.3 |
| 20260906130010 | 52 | 165 | 2.0 | 2.0 | 0.00 | 0.00 | 0.00 | 48 | 1028.2 |
| 20260906125508 | 52 | 172 | 1.0 | 2.0 | 0.00 | 0.00 | 0.00 | 47 | 1028.3 |
| 20260906125007 | 53 | 185 | 2.0 | 3.0 | 0.00 | 0.00 | 0.00 | 47 | 1028.2 |
| 20260906124503 | 52 | 205 | 3.0 | 4.0 | 0.00 | 0.00 | 0.00 | 48 | 1028.2 |
| 20260906123957 | 52 | 224 | 2.0 | 3.0 | 0.00 | 0.00 | 0.00 | 47 | 1027.9 |
| 20260906123456 | 53 | 192 | 2.0 | 2.0 | 0.00 | 0.00 | 0.00 | 47 | 1028.3 |
| 20260906122956 | 53 | 181 | 2.0 | 3.0 | 0.00 | 0.00 | 0.00 | 47 | 1028.4 |
| 20260906122451 | 53 | 186 | 2.0 | 2.0 | 0.00 | 0.00 | 0.00 | 46 | 1028.2 |
| 20260906121947 | 53 | 192 | 2.0 | 2.0 | 0.00 | 0.00 | 0.00 | 46 | 1028.2 |
| 20260906121443 | 53 | 197 | 2.0 | 3.0 | 0.00 | 0.00 | 0.00 | 46 | 1028.3 |
| 20260906120940 | 53 | 182 | 2.0 | 3.0 | 0.00 | 0.00 | 0.00 | 46 | 1027.9 |
| 20260906120435 | 53 | 194 | 2.0 | 3.0 | 0.00 | 0.00 | 0.00 | 45 | 1028.3 |
| 20260906115931 | 52 | 185 | 2.0 | 3.0 | 0.00 | 0.00 | 0.00 | 45 | 1028.2 |
| 20260906115426 | 53 | 161 | 2.0 | 2.0 | 0.00 | 0.00 | 0.00 | 44 | 1028.0 |
| 20260906114921 | 52 | 170 | 2.0 | 2.0 | 0.00 | 0.00 | 0.00 | 44 | 1028.3 |
| 20260906114420 | 53 | 164 | 2.0 | 2.0 | 0.00 | 0.00 | 0.00 | 43 | 1028.0 |
| 20260906113916 | 53 | 159 | 2.0 | 2.0 | 0.00 | 0.00 | 0.00 | 42 | 1027.8 |
| 20260906113415 | 53 | 191 | 2.0 | 2.0 | 0.00 | 0.00 | 0.00 | 42 | 1028.2 |
| 20260906112911 | 53 | 189 | 2.0 | 2.0 | 0.00 | 0.00 | 0.00 | 42 | 1028.0 |
| 20260906112406 | 53 | 191 | 2.0 | 2.0 | 0.00 | 0.00 | 0.00 | 41 | 1028.3 |
| 20260906111901 | 53 | 197 | 2.0 | 3.0 | 0.00 | 0.00 | 0.00 | 41 | 1028.3 |
| 20260906111401 | 53 | 192 | 2.0 | 3.0 | 0.00 | 0.00 | 0.00 | 42 | 1028.2 |
| 20260906110856 | 53 | 200 | 2.0 | 3.0 | 0.00 | 0.00 | 0.00 | 41 | 1028.2 |
| 20260906110351 | 54 | 208 | 2.0 | 2.0 | 0.00 | 0.00 | 0.00 | 41 | 1028.0 |
| 20260906105850 | 54 | 195 | 2.0 | 3.0 | 0.00 | 0.00 | 0.00 | 41 | 1028.2 |
| 20260906105346 | 54 | 203 | 2.0 | 2.0 | 0.00 | 0.00 | 0.00 | 41 | 1027.9 |
| 20260906104842 | 54 | 204 | 2.0 | 2.0 | 0.00 | 0.00 | 0.00 | 41 | 1028.3 |
| 20260906104340 | 54 | 183 | 1.0 | 2.0 | 0.00 | 0.00 | 0.00 | 41 | 1028.3 |
| 20260906103839 | 54 | 210 | 2.0 | 3.0 | 0.00 | 0.00 | 0.00 | 41 | 1028.4 |
| 20260906103337 | 55 | 215 | 2.0 | 2.0 | 0.00 | 0.00 | 0.00 | 40 | 1028.3 |
| 20260906102834 | 54 | 173 | 1.0 | 2.0 | 0.00 | 0.00 | 0.00 | 39 | 1028.0 |
| 20260906102332 | 54 | 179 | 1.0 | 1.0 | 0.00 | 0.00 | 0.00 | 40 | 1028.0 |
| 20260906101828 | 53 | 204 | 1.0 | 1.0 | 0.00 | 0.00 | 0.00 | 41 | 1028.2 |
| 20260906101323 | 53 | 217 | 1.0 | 2.0 | 0.00 | 0.00 | 0.00 | 41 | 1027.9 |
| 20260906100819 | 53 | 251 | 0.0 | 0.0 | 0.00 | 0.00 | 0.00 | 40 | 1027.9 |
| 20260906100317 | 54 | 237 | 0.0 | 1.0 | 0.00 | 0.00 | 0.00 | 40 | 1028.2 |
| 20260906095813 | 54 | 268 | 2.0 | 2.0 | 0.00 | 0.00 | 0.00 | 40 | 1028.2 |
| 20260906095308 | 54 | 215 | 1.0 | 2.0 | 0.00 | 0.00 | 0.00 | 39 | 1028.2 |
| 20260906094807 | 55 | 246 | 2.0 | 4.0 | 0.00 | 0.00 | 0.00 | 39 | 1028.2 |
| 20260906094302 | 54 | 222 | 2.0 | 7.0 | 0.00 | 0.00 | 0.00 | 39 | 1027.9 |
| 20260906093759 | 54 | 206 | 2.0 | 2.0 | 0.00 | 0.00 | 0.00 | 40 | 1028.0 |
| 20260906093254 | 54 | 208 | 2.0 | 3.0 | 0.00 | 0.00 | 0.00 | 39 | 1027.8 |
| 20260906092749 | 54 | 198 | 3.0 | 3.0 | 0.00 | 0.00 | 0.00 | 39 | 1028.2 |
| 20260906092243 | 54 | 225 | 2.0 | 4.0 | 0.00 | 0.00 | 0.00 | 40 | 1027.9 |
| 20260906091739 | 54 | 249 | 2.0 | 4.0 | 0.00 | 0.00 | 0.00 | 40 | 1028.2 |
| 20260906091235 | 54 | 215 | 2.0 | 3.0 | 0.00 | 0.00 | 0.00 | 40 | 1027.9 |
| 20260906090732 | 54 | 240 | 4.0 | 4.0 | 0.00 | 0.00 | 0.00 | 40 | 1027.9 |
| 20260906090230 | 54 | 221 | 3.0 | 4.0 | 0.00 | 0.00 | 0.00 | 40 | 1027.9 |
| 20260906085730 | 54 | 240 | 4.0 | 6.0 | 0.00 | 0.00 | 0.00 | 40 | 1027.8 |
| 20260906085229 | 54 | 221 | 3.0 | 6.0 | 0.00 | 0.00 | 0.00 | 40 | 1028.0 |
| 20260906084724 | 54 | 237 | 4.0 | 6.0 | 0.00 | 0.00 | 0.00 | 40 | 1028.0 |
| 20260906084224 | 54 | 213 | 4.0 | 6.0 | 0.00 | 0.00 | 0.00 | 40 | 1028.3 |
| 20260906083719 | 54 | 223 | 4.0 | 7.0 | 0.00 | 0.00 | 0.00 | 40 | 1027.9 |
| 20260906083215 | 54 | 215 | 5.0 | 6.0 | 0.00 | 0.00 | 0.00 | 40 | 1027.9 |
| 20260906082710 | 54 | 209 | 5.0 | 7.0 | 0.00 | 0.00 | 0.00 | 41 | 1028.2 |
| 20260906082205 | 54 | 202 | 5.0 | 7.0 | 0.00 | 0.00 | 0.00 | 41 | 1027.9 |
| 20260906081701 | 53 | 209 | 5.0 | 8.0 | 0.00 | 0.00 | 0.00 | 41 | 1028.4 |
| 20260906081150 | 53 | 221 | 6.0 | 8.0 | 0.00 | 0.00 | 0.00 | 42 | 1028.4 |
| 20260906080647 | 53 | 219 | 5.0 | 6.0 | 0.00 | 0.00 | 0.00 | 42 | 1028.3 |
| 20260906080143 | 53 | 192 | 4.0 | 6.0 | 0.00 | 0.00 | 0.00 | 42 | 1028.3 |
| 20260906075642 | 53 | 219 | 4.0 | 7.0 | 0.00 | 0.00 | 0.00 | 42 | 1028.3 |
| 20260906075137 | 53 | 210 | 5.0 | 6.0 | 0.00 | 0.00 | 0.00 | 41 | 1028.2 |
| 20260906074632 | 54 | 184 | 6.0 | 8.0 | 0.00 | 0.00 | 0.00 | 40 | 1027.9 |
| 20260906074131 | 54 | 206 | 4.0 | 6.0 | 0.00 | 0.00 | 0.00 | 40 | 1028.2 |
| 20260906073626 | 54 | 215 | 3.0 | 6.0 | 0.00 | 0.00 | 0.00 | 40 | 1028.4 |
| 20260906073121 | 55 | 204 | 5.0 | 6.0 | 0.00 | 0.00 | 0.00 | 39 | 1028.2 |
| 20260906072616 | 55 | 208 | 5.0 | 6.0 | 0.00 | 0.00 | 0.00 | 39 | 1028.0 |
| 20260906072113 | 54 | 212 | 4.0 | 7.0 | 0.00 | 0.00 | 0.00 | 39 | 1028.3 |
| 20260906071609 | 54 | 219 | 4.0 | 7.0 | 0.00 | 0.00 | 0.00 | 39 | 1028.0 |
| 20260906071109 | 55 | 202 | 4.0 | 6.0 | 0.00 | 0.00 | 0.00 | 39 | 1028.2 |
| 20260906070605 | 55 | 210 | 4.0 | 7.0 | 0.00 | 0.00 | 0.00 | 39 | 1028.4 |
| 20260906070100 | 55 | 204 | 5.0 | 8.0 | 0.00 | 0.00 | 0.00 | 39 | 1028.4 |
| 20260906065559 | 55 | 206 | 6.0 | 8.0 | 0.00 | 0.00 | 0.00 | 39 | 1028.2 |
| 20260906065055 | 55 | 196 | 4.0 | 6.0 | 0.00 | 0.00 | 0.00 | 39 | 1028.2 |
| 20260906064551 | 55 | 148 | 5.0 | 7.0 | 0.00 | 0.00 | 0.00 | 38 | 1028.4 |
| 20260906064046 | 55 | 195 | 5.0 | 6.0 | 0.00 | 0.00 | 0.00 | 38 | 1028.2 |
| 20260906063541 | 56 | 170 | 4.0 | 6.0 | 0.00 | 0.00 | 0.00 | 37 | 1028.3 |
| 20260906063038 | 56 | 200 | 4.0 | 4.0 | 0.00 | 0.00 | 0.00 | 38 | 1028.2 |
| 20260906062532 | 56 | 201 | 3.0 | 6.0 | 0.00 | 0.00 | 0.00 | 38 | 1028.3 |
| 20260906062026 | 56 | 190 | 2.0 | 6.0 | 0.00 | 0.00 | 0.00 | 38 | 1028.3 |
| 20260906061523 | 56 | 196 | 3.0 | 6.0 | 0.00 | 0.00 | 0.00 | 37 | 1028.2 |
| 20260906061022 | 56 | 203 | 4.0 | 6.0 | 0.00 | 0.00 | 0.00 | 37 | 1028.2 |
| 20260906060519 | 56 | 182 | 4.0 | 4.0 | 0.00 | 0.00 | 0.00 | 38 | 1028.2 |
| 20260906060015 | 56 | 212 | 3.0 | 6.0 | 0.00 | 0.00 | 0.00 | 37 | 1027.9 |
| 20260906055512 | 56 | 211 | 5.0 | 6.0 | 0.00 | 0.00 | 0.00 | 37 | 1028.3 |
| 20260906055007 | 56 | 203 | 4.0 | 4.0 | 0.00 | 0.00 | 0.00 | 37 | 1028.0 |
| 20260906054507 | 56 | 193 | 3.0 | 4.0 | 0.00 | 0.00 | 0.00 | 37 | 1028.0 |
| 20260906054002 | 57 | 219 | 3.0 | 4.0 | 0.00 | 0.00 | 0.00 | 37 | 1028.0 |
| 20260906053458 | 57 | 223 | 4.0 | 4.0 | 0.00 | 0.00 | 0.00 | 36 | 1028.3 |
| 20260906052954 | 57 | 207 | 4.0 | 4.0 | 0.00 | 0.00 | 0.00 | 37 | 1028.4 |
| 20260906052450 | 57 | 198 | 3.0 | 4.0 | 0.00 | 0.00 | 0.00 | 36 | 1028.4 |
| 20260906051946 | 57 | 214 | 3.0 | 4.0 | 0.00 | 0.00 | 0.00 | 35 | 1028.4 |
| 20260906051441 | 57 | 208 | 3.0 | 7.0 | 0.00 | 0.00 | 0.00 | 35 | 1028.3 |
| 20260906050937 | 57 | 199 | 3.0 | 4.0 | 0.00 | 0.00 | 0.00 | 35 | 1028.3 |
| 20260906050436 | 57 | 196 | 3.0 | 4.0 | 0.00 | 0.00 | 0.00 | 35 | 1028.0 |
| 20260906045936 | 57 | 198 | 2.0 | 3.0 | 0.00 | 0.00 | 0.00 | 35 | 1028.2 |
| 20260906045435 | 57 | 189 | 3.0 | 4.0 | 0.00 | 0.00 | 0.00 | 35 | 1028.3 |
| 20260906044932 | 57 | 191 | 4.0 | 4.0 | 0.00 | 0.00 | 0.00 | 35 | 1028.5 |
| 20260906044431 | 57 | 202 | 3.0 | 4.0 | 0.00 | 0.00 | 0.00 | 36 | 1028.5 |
| 20260906043927 | 58 | 195 | 3.0 | 3.0 | 0.00 | 0.00 | 0.00 | 35 | 1028.5 |
| 20260906043423 | 58 | 199 | 4.0 | 4.0 | 0.00 | 0.00 | 0.00 | 35 | 1028.3 |
| 20260906042918 | 58 | 190 | 3.0 | 3.0 | 0.00 | 0.00 | 0.00 | 35 | 1028.4 |
| 20260906042417 | 57 | 208 | 3.0 | 6.0 | 0.00 | 0.00 | 0.00 | 36 | 1028.4 |
| 20260906041912 | 58 | 176 | 3.0 | 4.0 | 0.00 | 0.00 | 0.00 | 36 | 1028.4 |
| 20260906041409 | 58 | 197 | 4.0 | 6.0 | 0.00 | 0.00 | 0.00 | 35 | 1028.3 |
| 20260906040908 | 58 | 185 | 3.0 | 4.0 | 0.00 | 0.00 | 0.00 | 35 | 1028.3 |
| 20260906040403 | 58 | 175 | 3.0 | 6.0 | 0.00 | 0.00 | 0.00 | 36 | 1028.4 |
| 20260906035859 | 58 | 193 | 3.0 | 6.0 | 0.00 | 0.00 | 0.00 | 36 | 1028.4 |
| 20260906035354 | 58 | 202 | 4.0 | 6.0 | 0.00 | 0.00 | 0.00 | 36 | 1028.3 |
| 20260906034849 | 58 | 198 | 4.0 | 6.0 | 0.00 | 0.00 | 0.00 | 36 | 1028.3 |
| 20260906034344 | 57 | 174 | 3.0 | 6.0 | 0.00 | 0.00 | 0.00 | 36 | 1028.4 |
| 20260906033840 | 58 | 178 | 3.0 | 6.0 | 0.00 | 0.00 | 0.00 | 36 | 1028.2 |
| 20260906033339 | 58 | 196 | 4.0 | 6.0 | 0.00 | 0.00 | 0.00 | 35 | 1028.2 |
| 20260906032835 | 57 | 192 | 4.0 | 7.0 | 0.00 | 0.00 | 0.00 | 36 | 1028.0 |
| 20260906032331 | 57 | 183 | 3.0 | 4.0 | 0.00 | 0.00 | 0.00 | 36 | 1028.2 |
| 20260906031826 | 57 | 191 | 3.0 | 4.0 | 0.00 | 0.00 | 0.00 | 36 | 1028.2 |
| 20260906031321 | 57 | 185 | 3.0 | 3.0 | 0.00 | 0.00 | 0.00 | 36 | 1028.2 |
| 20260906030821 | 57 | 192 | 3.0 | 3.0 | 0.00 | 0.00 | 0.00 | 35 | 1028.0 |
| 20260906030316 | 58 | 181 | 3.0 | 4.0 | 0.00 | 0.00 | 0.00 | 35 | 1028.0 |
| 20260906025811 | 59 | 155 | 2.0 | 3.0 | 0.00 | 0.00 | 0.00 | 34 | 1027.9 |
| 20260906025306 | 59 | 182 | 3.0 | 6.0 | 0.00 | 0.00 | 0.00 | 34 | 1027.9 |
| 20260906024804 | 59 | 164 | 4.0 | 6.0 | 0.00 | 0.00 | 0.00 | 33 | 1027.5 |
| 20260906024303 | 60 | 196 | 4.0 | 6.0 | 0.00 | 0.00 | 0.00 | 33 | 1027.8 |
| 20260906023759 | 60 | 208 | 3.0 | 4.0 | 0.00 | 0.00 | 0.00 | 33 | 1027.8 |
| 20260906023254 | 59 | 182 | 3.0 | 4.0 | 0.00 | 0.00 | 0.00 | 35 | 1027.6 |
| 20260906022749 | 60 | 210 | 5.0 | 6.0 | 0.00 | 0.00 | 0.00 | 33 | 1027.6 |
| 20260906022244 | 60 | 211 | 3.0 | 6.0 | 0.00 | 0.00 | 0.00 | 32 | 1027.4 |
| 20260906021741 | 61 | 153 | 4.0 | 9.0 | 0.00 | 0.00 | 0.00 | 31 | 1027.2 |
| 20260906021240 | 61 | 143 | 7.0 | 11.0 | 0.00 | 0.00 | 0.00 | 31 | 1027.2 |
| 20260906020735 | 61 | 119 | 6.0 | 10.0 | 0.00 | 0.00 | 0.00 | 31 | 1027.1 |
| 20260906020234 | 61 | 156 | 7.0 | 11.0 | 0.00 | 0.00 | 0.00 | 30 | 1027.4 |
| 20260906015729 | 61 | 97 | 4.0 | 10.0 | 0.00 | 0.00 | 0.00 | 30 | 1027.4 |
| 20260906015227 | 61 | 131 | 5.0 | 10.0 | 0.00 | 0.00 | 0.00 | 30 | 1027.5 |
| 20260906014722 | 61 | 162 | 6.0 | 8.0 | 0.00 | 0.00 | 0.00 | 30 | 1026.9 |
| 20260906014218 | 62 | 114 | 5.0 | 8.0 | 0.00 | 0.00 | 0.00 | 30 | 1027.4 |
| 20260906013714 | 62 | 184 | 6.0 | 10.0 | 0.00 | 0.00 | 0.00 | 29 | 1027.2 |
| 20260906013214 | 62 | 111 | 6.0 | 9.0 | 0.00 | 0.00 | 0.00 | 29 | 1027.4 |
| 20260906012710 | 62 | 105 | 5.0 | 8.0 | 0.00 | 0.00 | 0.00 | 29 | 1027.4 |
| 20260906012210 | 63 | 143 | 9.0 | 10.0 | 0.00 | 0.00 | 0.00 | 28 | 1027.4 |
| 20260906011705 | 63 | 150 | 5.0 | 10.0 | 0.00 | 0.00 | 0.00 | 29 | 1027.4 |
| 20260906011159 | 64 | 138 | 5.0 | 7.0 | 0.00 | 0.00 | 0.00 | 28 | 1027.4 |
| 20260906010655 | 64 | 110 | 7.0 | 13.0 | 0.00 | 0.00 | 0.00 | 28 | 1027.1 |
| 20260906010151 | 64 | 150 | 3.0 | 10.0 | 0.00 | 0.00 | 0.00 | 28 | 1027.1 |
| 20260906005651 | 64 | 113 | 7.0 | 9.0 | 0.00 | 0.00 | 0.00 | 28 | 1027.2 |
| 20260906005150 | 65 | 113 | 7.0 | 10.0 | 0.00 | 0.00 | 0.00 | 28 | 1027.4 |
| 20260906004650 | 65 | 117 | 5.0 | 8.0 | 0.00 | 0.00 | 0.00 | 28 | 1027.5 |
| 20260906004145 | 65 | 105 | 4.0 | 13.0 | 0.00 | 0.00 | 0.00 | 27 | 1027.4 |
| 20260906003640 | 66 | 117 | 5.0 | 13.0 | 0.00 | 0.00 | 0.00 | 27 | 1027.4 |
| 20260906003136 | 66 | 113 | 6.0 | 9.0 | 0.00 | 0.00 | 0.00 | 27 | 1027.6 |
| 20260906002636 | 66 | 158 | 7.0 | 10.0 | 0.00 | 0.00 | 0.00 | 27 | 1027.2 |
| 20260906002130 | 66 | 136 | 8.0 | 13.0 | 0.00 | 0.00 | 0.00 | 27 | 1027.2 |
| 20260906001626 | 67 | 103 | 3.0 | 8.0 | 0.00 | 0.00 | 0.00 | 27 | 1027.2 |
| 20260906001125 | 67 | 109 | 9.0 | 16.0 | 0.00 | 0.00 | 0.00 | 26 | 1027.2 |
| 20260906000622 | 67 | 51 | 4.0 | 10.0 | 0.00 | 0.00 | 0.00 | 27 | 1027.2 |
| 20260906000117 | 67 | 168 | 6.0 | 10.0 | 0.00 | 0.00 | 0.00 | 26 | 1027.4 |
| 20260905235615 | 68 | 124 | 5.0 | 11.0 | 0.00 | 0.00 | 0.00 | 26 | 1027.2 |
| 20260905235111 | 68 | 123 | 4.0 | 7.0 | 0.00 | 0.00 | 0.00 | 28 | 1027.6 |